Time;durP1;ratioP1;P1;durP2;ratioP2;P2;SDS_P1;SDS_P2;PMS_P1;PMS_P2;Temp;Humidity;BMP_temperature;BMP_pressure;BME280_temperature;BME280_humidity;BME280_pressure;Samples;Min_cycle;Max_cycle;Signal;HPM_P1;HPM_P2
2021/07/20 13:44:12;;;;;;;;;;;;;;;;;;;;;
2021/07/20 13:50:44;;;;;;;;;;;;;;;;;;;;;
2021/07/20 16:07:42;;;;;;;7.18;4.68;;;;;;;21.41;70.51;96898.64;130692;1082;62427;-93
2021/07/20 16:11:21;;;;;;;;;;;;;;;;;;;;;
2021/07/20 16:14:55;;;;;;;;;;;;;;;;;;;;;
2021/07/20 16:18:13;;;;;;;6.30;4.67;;;;;;;21.65;69.99;96906.33;130751;1082;61082;-93
2021/07/20 16:22:22;;;;;;;;;;;;;;;;;;;;;
2021/07/20 16:25:43;;;;;;;7.33;4.63;;;;;;;21.89;68.98;96897.86;130678;1082;61956;-92
2021/07/20 16:29:11;;;;;;;7.03;4.77;;;;;;;21.91;68.71;96906.58;130652;1082;61128;-91
2021/07/20 16:33:16;;;;;;;8.13;4.60;;;;;;;22.04;68.06;96903.08;130166;1085;61267;-91
2021/07/20 16:37:00;;;;;;;8.73;5.20;;;;;;;21.97;68.51;96904.45;130202;1085;61143;-91
2021/07/20 16:40:56;;;;;;;;;;;;;;;;;;;;;
2021/07/20 16:44:30;;;;;;;;;;;;;;;;;;;;;
2021/07/20 16:55:39;;;;;;;;;;;;;;;;;;;;;
2021/07/20 16:59:21;;;;;;;;;;;;;;;;;;;;;
2021/07/20 17:12:12;;;;;;;;;;;;;;;;;;;;;
2021/07/20 17:15:36;;;;;;;9.57;6.73;;;;;;;21.11;69.91;96932.38;130741;1082;61083;-92
2021/07/20 17:19:22;;;;;;;;;;;;;;;;;;;;;
2021/07/20 17:22:52;;;;;;;;;;;;;;;;;;;;;
2021/07/20 17:26:17;;;;;;;8.63;6.40;;;;;;;20.76;70.99;96930.32;130703;1082;61026;-93
2021/07/20 17:29:52;;;;;;;;;;;;;;;;;;;;;
2021/07/20 17:33:54;;;;;;;;;;;;;;;;;;;;;
2021/07/20 17:37:32;;;;;;;;;;;;;;;;;;;;;
2021/07/20 17:41:09;;;;;;;;;;;;;;;;;;;;;
2021/07/20 17:44:32;;;;;;;7.60;5.93;;;;;;;20.44;72.62;96964.49;130621;1082;61163;-93
2021/07/20 17:48:18;;;;;;;8.30;5.73;;;;;;;20.44;72.14;96958.10;130710;1082;61110;-91
2021/07/20 18:03:13;;;;;;;12.20;9.17;;;;;;;20.24;71.81;96992.92;129690;1087;61170;-95
2021/07/20 18:07:20;;;;;;;;;;;;;;;;;;;;;
2021/07/20 18:10:54;;;;;;;;;;;;;;;;;;;;;
2021/07/20 18:15:22;;;;;;;10.50;6.93;;;;;;;20.16;71.50;96997.55;129613;1089;63474;-95
2021/07/20 18:18:16;;;;;;;12.70;7.27;;;;;;;20.16;71.79;96998.32;129629;1092;61164;-93
2021/07/20 18:22:34;;;;;;;;;;;;;;;;;;;;;
2021/07/20 18:26:12;;;;;;;;;;;;;;;;;;;;;
2021/07/20 18:33:48;;;;;;;;;;;;;;;;;;;;;
2021/07/20 18:37:20;;;;;;;12.00;7.33;;;;;;;20.03;72.31;97026.19;129293;1092;61194;-94
2021/07/20 18:41:02;;;;;;;;;;;;;;;;;;;;;
2021/07/20 18:44:23;;;;;;;9.70;7.33;;;;;;;20.00;72.00;97029.27;130074;1085;61112;-92
2021/07/20 18:48:01;;;;;;;;;;;;;;;;;;;;;
2021/07/20 18:51:35;;;;;;;13.23;7.03;;;;;;;19.93;72.80;97036.19;130167;1085;62180;-92
2021/07/20 18:55:07;;;;;;;12.93;7.80;;;;;;;19.95;71.98;97044.87;130592;1082;61173;-93
2021/07/20 18:58:39;;;;;;;12.57;7.70;;;;;;;19.92;72.87;97051.48;130687;1082;61174;-93
2021/07/20 19:02:15;;;;;;;;;;;;;;;;;;;;;
2021/07/20 19:05:39;;;;;;;13.43;7.87;;;;;;;19.93;72.92;97058.66;130787;1083;60704;-92
2021/07/20 19:09:19;;;;;;;15.67;7.87;;;;;;;19.86;73.55;97050.73;130677;1082;61434;-93
2021/07/20 19:12:49;;;;;;;12.67;8.27;;;;;;;19.84;72.98;97061.73;130632;1082;61070;-93
2021/07/20 19:16:45;;;;;;;;;;;;;;;;;;;;;
2021/07/20 19:20:27;;;;;;;12.77;7.80;;;;;;;19.74;72.89;97063.25;130689;1082;61073;-93
2021/07/20 19:23:56;;;;;;;11.57;7.93;;;;;;;19.76;72.63;97069.15;130745;1082;61138;-91
2021/07/20 19:27:47;;;;;;;;;;;;;;;;;;;;;
2021/07/20 19:31:50;;;;;;;;;;;;;;;;;;;;;
2021/07/20 19:35:20;;;;;;;;;;;;;;;;;;;;;
2021/07/20 19:38:39;;;;;;;13.33;8.50;;;;;;;19.55;72.15;97074.98;129991;1089;61074;-91
2021/07/20 19:42:14;;;;;;;16.93;8.43;;;;;;;19.49;71.96;97079.05;130042;1088;61162;-91
2021/07/20 19:46:07;;;;;;;;;;;;;;;;;;;;;
2021/07/20 19:49:27;;;;;;;11.10;7.40;;;;;;;19.31;72.58;97083.10;129658;1091;61165;-91
2021/07/20 19:53:23;;;;;;;9.50;7.23;;;;;;;19.24;72.52;97073.14;129037;1094;61218;-92
2021/07/20 20:00:40;;;;;;;13.10;8.23;;;;;;;19.14;73.01;97085.88;129031;1095;61215;-92
2021/07/20 20:04:25;;;;;;;;;;;;;;;;;;;;;
2021/07/20 20:07:51;;;;;;;12.30;8.37;;;;;;;18.97;73.74;97088.63;129208;1092;61516;-91
2021/07/20 20:11:37;;;;;;;12.77;7.80;;;;;;;18.95;74.00;97085.56;129631;1091;61152;-91
2021/07/20 20:15:06;;;;;;;11.17;7.70;;;;;;;18.90;74.27;97085.55;129361;1092;61178;-92
2021/07/20 20:18:43;;;;;;;13.73;8.40;;;;;;;18.83;74.04;97083.98;129365;1089;61187;-92
2021/07/20 20:22:15;;;;;;;12.13;8.47;;;;;;;18.72;74.76;97078.34;129481;1088;62034;-91
2021/07/20 20:25:40;;;;;;;14.17;8.60;;;;;;;18.70;74.73;97070.44;129659;1088;61198;-92
2021/07/20 20:29:09;;;;;;;14.10;8.90;;;;;;;18.80;74.55;97067.39;129901;1085;61211;-91
2021/07/20 20:32:53;;;;;;;15.17;8.50;;;;;;;18.82;74.79;97071.22;130708;1082;61076;-91
2021/07/20 20:36:40;;;;;;;;;;;;;;;;;;;;;
2021/07/20 20:40:30;;;;;;;;;;;;;;;;;;;;;
2021/07/20 20:43:48;;;;;;;11.87;8.33;;;;;;;18.83;74.02;97086.78;130674;1082;61163;-91
2021/07/20 20:47:16;;;;;;;13.17;8.03;;;;;;;18.76;73.79;97095.69;130752;1082;61643;-90
2021/07/20 20:50:47;;;;;;;12.60;7.67;;;;;;;18.71;73.75;97088.80;130674;1082;61179;-91
2021/07/20 20:54:15;;;;;;;11.70;7.20;;;;;;;18.69;72.95;97094.14;130734;1082;61114;-91
2021/07/20 21:00:26;;;;;;;;;;;;;;;;;;;;;
2021/07/20 21:07:29;;;;;;;11.57;6.57;;;;;;;18.62;72.18;97096.61;130656;1082;61143;-92
2021/07/20 21:11:05;;;;;;;12.70;7.17;;;;;;;18.66;72.13;97097.16;130729;1082;61141;-92
2021/07/20 21:14:37;;;;;;;10.60;7.25;;;;;;;18.65;72.29;97099.20;130722;1082;61667;-91
2021/07/20 21:18:13;;;;;;;10.23;6.50;;;;;;;18.65;72.63;97102.00;130588;1082;61192;-90
2021/07/20 21:22:02;;;;;;;13.13;7.63;;;;;;;18.65;72.42;97101.23;130684;1082;61071;-90
2021/07/20 21:25:34;;;;;;;11.87;7.20;;;;;;;18.61;73.00;97103.48;130708;1082;61115;-91
2021/07/20 21:32:49;;;;;;;12.10;7.97;;;;;;;18.49;73.46;97099.08;130303;1082;61492;-91
2021/07/20 21:36:17;;;;;;;11.63;7.83;;;;;;;18.33;73.95;97087.30;130612;1082;61219;-91
2021/07/20 21:39:50;;;;;;;15.97;8.03;;;;;;;18.26;74.40;97087.75;130672;1082;61190;-91
2021/07/20 21:50:47;;;;;;;11.40;8.13;;;;;;;18.19;73.82;97088.23;130127;1085;61503;-88
2021/07/20 21:54:15;;;;;;;13.33;8.73;;;;;;;18.05;74.28;97086.34;130137;1085;61381;-89
2021/07/20 21:57:47;;;;;;;14.50;8.53;;;;;;;17.83;74.68;97091.78;130140;1085;61120;-90
2021/07/20 22:01:15;;;;;;;14.50;8.30;;;;;;;17.74;74.79;97092.72;130140;1085;61120;-89
2021/07/20 22:04:42;;;;;;;10.40;8.13;;;;;;;17.64;75.57;97097.72;130148;1085;61149;-90
2021/07/20 22:08:12;;;;;;;14.47;8.90;;;;;;;17.61;75.39;97089.55;130167;1085;61547;-90
2021/07/20 22:11:45;;;;;;;16.93;8.60;;;;;;;17.58;75.82;97096.88;130104;1085;61235;-89
2021/07/20 22:15:13;;;;;;;13.77;8.83;;;;;;;17.56;75.92;97091.01;130152;1085;61345;-89
2021/07/20 22:18:45;;;;;;;13.30;9.03;;;;;;;17.55;75.83;97097.88;130112;1085;61220;-89
2021/07/20 22:22:14;;;;;;;13.53;8.97;;;;;;;17.56;76.09;97093.81;130133;1085;61119;-91
2021/07/20 22:25:56;;;;;;;14.00;9.27;;;;;;;17.60;76.22;97094.38;130704;1082;61729;-90
2021/07/20 22:29:23;;;;;;;15.48;9.48;;;;;;;17.64;75.86;97097.72;130720;1082;61010;-90
2021/07/20 22:32:52;;;;;;;15.37;9.17;;;;;;;17.63;75.58;97098.98;130677;1082;61191;-90
2021/07/20 22:36:26;;;;;;;14.27;8.53;;;;;;;17.63;75.44;97104.58;130685;1082;61073;-89
2021/07/20 22:39:59;;;;;;;17.17;9.30;;;;;;;17.62;75.37;97103.05;130713;1081;61048;-89
2021/07/20 22:43:35;;;;;;;15.17;9.40;;;;;;;17.59;75.60;97098.41;130726;1082;61772;-88
2021/07/20 22:47:14;;;;;;;16.77;9.67;;;;;;;17.55;75.51;97103.47;130678;1082;61146;-89
2021/07/20 22:50:51;;;;;;;12.83;9.13;;;;;;;17.57;75.66;97105.77;130686;1082;61163;-91
2021/07/20 22:54:26;;;;;;;16.87;9.57;;;;;;;17.56;75.29;97110.61;130687;1080;61109;-90
2021/07/20 22:58:15;;;;;;;13.33;8.50;;;;;;;17.57;75.09;97123.34;130682;1082;61043;-89
2021/07/20 23:01:48;;;;;;;14.33;9.23;;;;;;;17.46;75.28;97126.81;130670;1082;61140;-89
2021/07/20 23:05:18;;;;;;;14.70;9.07;;;;;;;17.44;75.19;97137.73;130704;1081;61050;-89
2021/07/20 23:08:49;;;;;;;15.57;8.77;;;;;;;17.39;75.30;97134.86;130737;1082;61223;-90
2021/07/20 23:12:19;;;;;;;14.23;9.13;;;;;;;17.33;75.33;97131.25;130577;1082;61092;-89
2021/07/20 23:15:49;;;;;;;19.07;9.73;;;;;;;17.24;75.92;97123.80;130590;1082;61068;-89
2021/07/20 23:32:10;;;;;;;15.57;8.20;;;;;;;17.07;74.54;97126.41;130723;1082;60978;-90
2021/07/20 23:35:44;;;;;;;12.53;7.87;;;;;;;17.17;73.39;97124.98;130741;1082;61772;-89
2021/07/20 23:39:13;;;;;;;13.53;7.70;;;;;;;17.10;73.72;97131.02;130696;1082;61130;-89
2021/07/20 23:42:43;;;;;;;13.73;7.70;;;;;;;16.99;74.14;97122.48;130697;1082;61220;-89
2021/07/20 23:46:12;;;;;;;12.83;7.17;;;;;;;16.96;73.69;97134.66;130737;1082;61174;-89
2021/07/20 23:49:24;;;;;;;10.35;7.08;;;;;;;16.90;73.70;97129.00;130771;1082;60749;-89
2021/07/20 23:53:17;;;;;;;12.07;7.40;;;;;;;16.82;73.82;97135.48;130379;1085;61503;-89
2021/07/20 23:56:56;;;;;;;13.93;6.83;;;;;;;16.79;73.59;97128.09;130649;1085;61264;-89
